sensor_id;sensor_type;location;lat;lon;timestamp;pressure;altitude;pressure_sealevel;temperature;humidity
65800;BME280;52544;48.116;11.660;2023-03-08T00:02:15;94321.13;;;4.46;57.94
65800;BME280;52544;48.116;11.660;2023-03-08T00:04:40;94328.66;;;4.50;57.58
65800;BME280;52544;48.116;11.660;2023-03-08T00:07:05;94325.53;;;4.45;57.68
65800;BME280;52544;48.116;11.660;2023-03-08T00:09:31;94319.00;;;4.51;57.13
65800;BME280;52544;48.116;11.660;2023-03-08T00:11:57;94329.72;;;4.48;57.15
65800;BME280;52544;48.116;11.660;2023-03-08T00:14:23;94330.78;;;4.45;57.78
65800;BME280;52544;48.116;11.660;2023-03-08T00:16:48;94325.53;;;4.45;57.29
65800;BME280;52544;48.116;11.660;2023-03-08T00:19:13;94335.53;;;4.51;57.05
65800;BME280;52544;48.116;11.660;2023-03-08T00:21:39;94333.53;;;4.44;56.92
65800;BME280;52544;48.116;11.660;2023-03-08T00:24:05;94338.44;;;4.37;57.40
65800;BME280;52544;48.116;11.660;2023-03-08T00:26:30;94338.31;;;4.39;57.19
65800;BME280;52544;48.116;11.660;2023-03-08T00:28:56;94336.78;;;4.36;57.79
65800;BME280;52544;48.116;11.660;2023-03-08T00:31:21;94335.13;;;4.35;57.37
65800;BME280;52544;48.116;11.660;2023-03-08T00:33:51;94337.75;;;4.35;57.70
65800;BME280;52544;48.116;11.660;2023-03-08T00:36:17;94332.75;;;4.32;57.34
65800;BME280;52544;48.116;11.660;2023-03-08T00:38:44;94347.41;;;4.23;57.92
65800;BME280;52544;48.116;11.660;2023-03-08T00:41:10;94335.63;;;4.29;57.88
65800;BME280;52544;48.116;11.660;2023-03-08T00:43:36;94339.75;;;4.32;57.73
65800;BME280;52544;48.116;11.660;2023-03-08T00:46:03;94334.81;;;4.17;57.45
65800;BME280;52544;48.116;11.660;2023-03-08T00:48:29;94330.53;;;4.16;57.88
65800;BME280;52544;48.116;11.660;2023-03-08T00:50:54;94345.16;;;4.19;57.31
65800;BME280;52544;48.116;11.660;2023-03-08T00:53:19;94339.31;;;4.15;57.27
65800;BME280;52544;48.116;11.660;2023-03-08T00:56:05;94330.03;;;4.22;56.77
65800;BME280;52544;48.116;11.660;2023-03-08T00:58:31;94326.59;;;4.22;56.64
65800;BME280;52544;48.116;11.660;2023-03-08T01:00:58;94331.25;;;4.18;56.75
65800;BME280;52544;48.116;11.660;2023-03-08T01:03:24;94336.00;;;4.13;56.89
65800;BME280;52544;48.116;11.660;2023-03-08T01:05:53;94336.59;;;4.17;56.78
65800;BME280;52544;48.116;11.660;2023-03-08T01:08:20;94320.63;;;4.20;56.40
65800;BME280;52544;48.116;11.660;2023-03-08T01:10:50;94329.81;;;4.14;56.43
65800;BME280;52544;48.116;11.660;2023-03-08T01:13:17;94329.34;;;4.09;56.63
65800;BME280;52544;48.116;11.660;2023-03-08T01:15:43;94323.03;;;4.12;56.54
65800;BME280;52544;48.116;11.660;2023-03-08T01:18:08;94318.28;;;4.17;56.85
65800;BME280;52544;48.116;11.660;2023-03-08T01:20:34;94316.84;;;4.13;56.63
65800;BME280;52544;48.116;11.660;2023-03-08T01:23:00;94311.72;;;4.11;56.44
65800;BME280;52544;48.116;11.660;2023-03-08T01:25:25;94303.19;;;4.09;56.53
65800;BME280;52544;48.116;11.660;2023-03-08T01:27:51;94318.16;;;4.07;56.42
65800;BME280;52544;48.116;11.660;2023-03-08T01:30:16;94314.84;;;4.05;55.96
65800;BME280;52544;48.116;11.660;2023-03-08T01:32:42;94328.41;;;3.99;56.86
65800;BME280;52544;48.116;11.660;2023-03-08T01:35:07;94323.91;;;3.90;57.47
65800;BME280;52544;48.116;11.660;2023-03-08T01:37:33;94319.41;;;3.81;57.53
65800;BME280;52544;48.116;11.660;2023-03-08T01:39:59;94320.25;;;3.70;58.06
65800;BME280;52544;48.116;11.660;2023-03-08T01:42:26;94322.97;;;3.68;58.55
65800;BME280;52544;48.116;11.660;2023-03-08T01:44:57;94325.59;;;3.68;57.91
65800;BME280;52544;48.116;11.660;2023-03-08T01:47:27;94333.34;;;3.70;58.29
65800;BME280;52544;48.116;11.660;2023-03-08T01:50:07;94328.94;;;3.70;58.23
65800;BME280;52544;48.116;11.660;2023-03-08T01:52:42;94331.66;;;3.69;58.61
65800;BME280;52544;48.116;11.660;2023-03-08T01:55:12;94322.03;;;3.58;59.05
65800;BME280;52544;48.116;11.660;2023-03-08T01:57:41;94323.47;;;3.51;59.40
65800;BME280;52544;48.116;11.660;2023-03-08T02:00:17;94317.78;;;3.57;59.41
65800;BME280;52544;48.116;11.660;2023-03-08T02:03:03;94308.38;;;3.55;59.70
65800;BME280;52544;48.116;11.660;2023-03-08T02:05:30;94301.13;;;3.47;60.25
65800;BME280;52544;48.116;11.660;2023-03-08T02:07:56;94304.91;;;3.43;60.18
65800;BME280;52544;48.116;11.660;2023-03-08T02:10:21;94301.84;;;3.38;60.37
65800;BME280;52544;48.116;11.660;2023-03-08T02:12:47;94307.28;;;3.35;60.70
65800;BME280;52544;48.116;11.660;2023-03-08T02:15:14;94303.03;;;3.34;61.08
65800;BME280;52544;48.116;11.660;2023-03-08T02:17:42;94293.75;;;3.30;60.99
65800;BME280;52544;48.116;11.660;2023-03-08T02:20:28;94301.81;;;3.26;61.10
65800;BME280;52544;48.116;11.660;2023-03-08T02:23:09;94300.16;;;3.25;61.44
65800;BME280;52544;48.116;11.660;2023-03-08T02:25:35;94288.75;;;3.26;61.89
65800;BME280;52544;48.116;11.660;2023-03-08T02:28:02;94295.88;;;3.13;62.41
65800;BME280;52544;48.116;11.660;2023-03-08T02:30:33;94292.28;;;3.14;61.96
65800;BME280;52544;48.116;11.660;2023-03-08T02:32:59;94285.88;;;3.18;62.55
65800;BME280;52544;48.116;11.660;2023-03-08T02:35:25;94280.09;;;3.15;62.19
65800;BME280;52544;48.116;11.660;2023-03-08T02:37:50;94284.47;;;3.03;62.83
65800;BME280;52544;48.116;11.660;2023-03-08T02:40:16;94279.94;;;3.05;63.02
65800;BME280;52544;48.116;11.660;2023-03-08T02:42:42;94282.19;;;3.10;62.95
65800;BME280;52544;48.116;11.660;2023-03-08T02:45:07;94269.25;;;3.08;62.75
65800;BME280;52544;48.116;11.660;2023-03-08T02:47:33;94267.84;;;3.04;63.11
65800;BME280;52544;48.116;11.660;2023-03-08T02:49:59;94269.94;;;2.77;64.48
65800;BME280;52544;48.116;11.660;2023-03-08T02:52:24;94269.34;;;2.73;65.27
65800;BME280;52544;48.116;11.660;2023-03-08T02:54:50;94269.47;;;2.83;64.50
65800;BME280;52544;48.116;11.660;2023-03-08T02:57:15;94273.63;;;2.85;64.64
65800;BME280;52544;48.116;11.660;2023-03-08T02:59:41;94271.84;;;2.86;64.24
65800;BME280;52544;48.116;11.660;2023-03-08T03:02:06;94270.66;;;2.79;64.80
65800;BME280;52544;48.116;11.660;2023-03-08T03:04:32;94276.44;;;2.60;65.57
65800;BME280;52544;48.116;11.660;2023-03-08T03:06:58;94263.84;;;2.65;65.69
65800;BME280;52544;48.116;11.660;2023-03-08T03:09:23;94270.25;;;2.61;66.08
65800;BME280;52544;48.116;11.660;2023-03-08T03:11:49;94273.22;;;2.56;65.84
65800;BME280;52544;48.116;11.660;2023-03-08T03:14:14;94265.38;;;2.56;66.39
65800;BME280;52544;48.116;11.660;2023-03-08T03:16:40;94266.91;;;2.59;66.17
65800;BME280;52544;48.116;11.660;2023-03-08T03:19:05;94275.09;;;2.54;66.72
65800;BME280;52544;48.116;11.660;2023-03-08T03:21:31;94268.22;;;2.53;67.07
65800;BME280;52544;48.116;11.660;2023-03-08T03:23:56;94273.38;;;2.42;67.18
65800;BME280;52544;48.116;11.660;2023-03-08T03:26:22;94266.25;;;2.33;67.93
65800;BME280;52544;48.116;11.660;2023-03-08T03:28:48;94265.16;;;2.24;68.48
65800;BME280;52544;48.116;11.660;2023-03-08T03:31:19;94263.38;;;2.24;68.46
65800;BME280;52544;48.116;11.660;2023-03-08T03:33:45;94263.00;;;2.18;68.92
65800;BME280;52544;48.116;11.660;2023-03-08T03:36:14;94254.22;;;2.19;69.05
65800;BME280;52544;48.116;11.660;2023-03-08T03:38:40;94248.09;;;1.96;70.34
65800;BME280;52544;48.116;11.660;2023-03-08T03:41:08;94254.75;;;2.00;70.22
65800;BME280;52544;48.116;11.660;2023-03-08T03:43:34;94242.56;;;2.12;69.90
65800;BME280;52544;48.116;11.660;2023-03-08T03:46:03;94246.25;;;2.09;69.89
65800;BME280;52544;48.116;11.660;2023-03-08T03:48:29;94241.97;;;2.08;69.85
65800;BME280;52544;48.116;11.660;2023-03-08T03:50:59;94244.06;;;2.03;70.26
65800;BME280;52544;48.116;11.660;2023-03-08T03:53:27;94236.41;;;1.89;71.30
65800;BME280;52544;48.116;11.660;2023-03-08T03:55:52;94232.16;;;1.88;71.31
65800;BME280;52544;48.116;11.660;2023-03-08T03:58:18;94234.53;;;1.91;71.27
65800;BME280;52544;48.116;11.660;2023-03-08T04:00:43;94237.41;;;1.99;70.80
65800;BME280;52544;48.116;11.660;2023-03-08T04:03:09;94247.75;;;2.00;70.58
65800;BME280;52544;48.116;11.660;2023-03-08T04:05:35;94238.63;;;2.06;70.60
65800;BME280;52544;48.116;11.660;2023-03-08T04:08:00;94233.97;;;1.98;70.29
65800;BME280;52544;48.116;11.660;2023-03-08T04:10:25;94236.22;;;1.92;71.10
65800;BME280;52544;48.116;11.660;2023-03-08T04:12:51;94229.31;;;1.91;71.49
65800;BME280;52544;48.116;11.660;2023-03-08T04:15:17;94227.81;;;1.75;72.71
65800;BME280;52544;48.116;11.660;2023-03-08T04:17:43;94234.75;;;1.88;72.14
65800;BME280;52544;48.116;11.660;2023-03-08T04:20:09;94233.00;;;1.99;71.49
65800;BME280;52544;48.116;11.660;2023-03-08T04:22:34;94224.28;;;2.00;71.27
65800;BME280;52544;48.116;11.660;2023-03-08T04:25:00;94236.97;;;2.05;71.01
65800;BME280;52544;48.116;11.660;2023-03-08T04:27:25;94226.75;;;2.02;71.38
65800;BME280;52544;48.116;11.660;2023-03-08T04:29:51;94224.28;;;2.00;71.52
65800;BME280;52544;48.116;11.660;2023-03-08T04:32:17;94211.50;;;2.09;71.31
65800;BME280;52544;48.116;11.660;2023-03-08T04:34:42;94216.31;;;2.02;71.99
65800;BME280;52544;48.116;11.660;2023-03-08T04:37:11;94209.59;;;2.11;71.75
65800;BME280;52544;48.116;11.660;2023-03-08T04:39:37;94202.84;;;2.08;71.83
65800;BME280;52544;48.116;11.660;2023-03-08T04:42:02;94199.41;;;2.19;71.29
65800;BME280;52544;48.116;11.660;2023-03-08T04:44:28;94199.28;;;2.20;71.48
65800;BME280;52544;48.116;11.660;2023-03-08T04:46:53;94196.56;;;2.22;71.56
65800;BME280;52544;48.116;11.660;2023-03-08T04:49:19;94197.88;;;2.28;71.21
65800;BME280;52544;48.116;11.660;2023-03-08T04:51:44;94195.50;;;2.24;71.24
65800;BME280;52544;48.116;11.660;2023-03-08T04:54:10;94196.31;;;2.25;71.34
65800;BME280;52544;48.116;11.660;2023-03-08T04:56:35;94186.97;;;2.22;71.76
65800;BME280;52544;48.116;11.660;2023-03-08T04:59:00;94185.31;;;2.21;71.84
65800;BME280;52544;48.116;11.660;2023-03-08T05:01:26;94170.31;;;2.12;72.25
65800;BME280;52544;48.116;11.660;2023-03-08T05:03:53;94167.00;;;2.10;72.69
65800;BME280;52544;48.116;11.660;2023-03-08T05:06:21;94168.19;;;2.06;72.82
65800;BME280;52544;48.116;11.660;2023-03-08T05:08:46;94166.41;;;2.07;73.04
65800;BME280;52544;48.116;11.660;2023-03-08T05:11:17;94158.47;;;2.08;73.51
65800;BME280;52544;48.116;11.660;2023-03-08T05:13:43;94153.25;;;2.08;73.35
65800;BME280;52544;48.116;11.660;2023-03-08T05:16:08;94156.78;;;2.07;73.86
65800;BME280;52544;48.116;11.660;2023-03-08T05:18:34;94141.94;;;2.08;73.86
65800;BME280;52544;48.116;11.660;2023-03-08T05:21:02;94134.03;;;2.09;74.40
65800;BME280;52544;48.116;11.660;2023-03-08T05:23:28;94128.56;;;2.12;74.55
65800;BME280;52544;48.116;11.660;2023-03-08T05:25:58;94131.91;;;2.14;74.57
65800;BME280;52544;48.116;11.660;2023-03-08T05:28:26;94126.69;;;2.14;74.30
65800;BME280;52544;48.116;11.660;2023-03-08T05:31:19;94124.78;;;2.16;74.27
65800;BME280;52544;48.116;11.660;2023-03-08T05:33:46;94128.47;;;2.14;74.25
65800;BME280;52544;48.116;11.660;2023-03-08T05:36:14;94125.72;;;2.15;74.49
65800;BME280;52544;48.116;11.660;2023-03-08T05:38:39;94132.25;;;2.10;74.85
65800;BME280;52544;48.116;11.660;2023-03-08T05:41:08;94132.13;;;2.11;75.17
65800;BME280;52544;48.116;11.660;2023-03-08T05:43:34;94126.41;;;2.06;75.62
65800;BME280;52544;48.116;11.660;2023-03-08T05:46:22;94124.53;;;2.08;75.68
65800;BME280;52544;48.116;11.660;2023-03-08T05:48:47;94110.53;;;2.09;75.61
65800;BME280;52544;48.116;11.660;2023-03-08T05:51:15;94108.97;;;2.07;75.97
65800;BME280;52544;48.116;11.660;2023-03-08T05:53:40;94112.69;;;2.04;76.52
65800;BME280;52544;48.116;11.660;2023-03-08T05:58:36;94100.69;;;2.02;77.62
65800;BME280;52544;48.116;11.660;2023-03-08T06:01:28;94108.63;;;2.00;77.69
65800;BME280;52544;48.116;11.660;2023-03-08T06:03:56;94101.72;;;1.99;78.00
65800;BME280;52544;48.116;11.660;2023-03-08T06:06:24;94107.06;;;1.97;77.77
65800;BME280;52544;48.116;11.660;2023-03-08T06:08:50;94102.56;;;1.99;77.76
65800;BME280;52544;48.116;11.660;2023-03-08T06:11:16;94098.78;;;2.04;78.12
65800;BME280;52544;48.116;11.660;2023-03-08T06:13:41;94103.06;;;2.05;78.33
65800;BME280;52544;48.116;11.660;2023-03-08T06:16:08;94105.31;;;2.09;78.27
65800;BME280;52544;48.116;11.660;2023-03-08T06:18:39;94101.75;;;2.10;78.34
65800;BME280;52544;48.116;11.660;2023-03-08T06:21:07;94101.53;;;2.13;78.40
65800;BME280;52544;48.116;11.660;2023-03-08T06:23:34;94095.59;;;2.11;78.68
65800;BME280;52544;48.116;11.660;2023-03-08T06:26:00;94100.34;;;2.17;78.57
65800;BME280;52544;48.116;11.660;2023-03-08T06:28:28;94104.41;;;2.21;79.00
65800;BME280;52544;48.116;11.660;2023-03-08T06:30:54;94102.50;;;2.23;79.84
65800;BME280;52544;48.116;11.660;2023-03-08T06:33:21;94097.75;;;2.29;79.19
65800;BME280;52544;48.116;11.660;2023-03-08T06:36:07;94105.13;;;2.35;78.86
65800;BME280;52544;48.116;11.660;2023-03-08T06:38:36;94095.84;;;2.42;78.30
65800;BME280;52544;48.116;11.660;2023-03-08T06:41:02;94103.22;;;2.48;78.46
65800;BME280;52544;48.116;11.660;2023-03-08T06:43:28;94108.69;;;2.56;78.74
65800;BME280;52544;48.116;11.660;2023-03-08T06:45:54;94097.75;;;2.62;79.00
65800;BME280;52544;48.116;11.660;2023-03-08T06:48:20;94104.88;;;2.71;78.56
65800;BME280;52544;48.116;11.660;2023-03-08T06:50:46;94108.66;;;2.79;77.96
65800;BME280;52544;48.116;11.660;2023-03-08T06:53:11;94113.44;;;2.85;77.97
65800;BME280;52544;48.116;11.660;2023-03-08T06:55:38;94111.28;;;2.90;77.46
65800;BME280;52544;48.116;11.660;2023-03-08T06:58:04;94116.97;;;2.95;77.48
65800;BME280;52544;48.116;11.660;2023-03-08T07:00:30;94114.59;;;3.03;76.90
65800;BME280;52544;48.116;11.660;2023-03-08T07:02:56;94115.03;;;3.08;76.70
65800;BME280;52544;48.116;11.660;2023-03-08T07:05:22;94117.06;;;3.16;76.47
65800;BME280;52544;48.116;11.660;2023-03-08T07:07:47;94108.97;;;3.19;75.91
65800;BME280;52544;48.116;11.660;2023-03-08T07:10:13;94118.09;;;3.24;76.33
65800;BME280;52544;48.116;11.660;2023-03-08T07:12:40;94115.94;;;3.30;75.73
65800;BME280;52544;48.116;11.660;2023-03-08T07:15:09;94119.84;;;3.35;75.57
65800;BME280;52544;48.116;11.660;2023-03-08T07:17:35;94124.84;;;3.38;75.27
65800;BME280;52544;48.116;11.660;2023-03-08T07:20:01;94123.50;;;3.44;75.05
65800;BME280;52544;48.116;11.660;2023-03-08T07:22:29;94126.59;;;3.49;74.96
65800;BME280;52544;48.116;11.660;2023-03-08T07:24:55;94125.78;;;3.48;74.98
65800;BME280;52544;48.116;11.660;2023-03-08T07:27:20;94129.91;;;3.51;75.07
65800;BME280;52544;48.116;11.660;2023-03-08T07:29:46;94138.59;;;3.51;75.36
65800;BME280;52544;48.116;11.660;2023-03-08T07:32:11;94140.97;;;3.55;74.63
65800;BME280;52544;48.116;11.660;2023-03-08T07:34:37;94140.59;;;3.59;74.03
65800;BME280;52544;48.116;11.660;2023-03-08T07:37:02;94135.78;;;3.75;74.31
65800;BME280;52544;48.116;11.660;2023-03-08T07:39:28;94127.94;;;3.75;73.84
65800;BME280;52544;48.116;11.660;2023-03-08T07:41:53;94120.09;;;3.75;72.43
65800;BME280;52544;48.116;11.660;2023-03-08T07:44:18;94114.59;;;3.79;72.46
65800;BME280;52544;48.116;11.660;2023-03-08T07:46:45;94126.59;;;3.81;73.08
65800;BME280;52544;48.116;11.660;2023-03-08T07:49:11;94118.34;;;3.86;72.87
65800;BME280;52544;48.116;11.660;2023-03-08T07:51:36;94109.28;;;3.90;71.90
65800;BME280;52544;48.116;11.660;2023-03-08T07:54:02;94109.75;;;3.95;71.88
65800;BME280;52544;48.116;11.660;2023-03-08T07:56:28;94116.13;;;4.02;72.41
65800;BME280;52544;48.116;11.660;2023-03-08T07:58:56;94113.72;;;4.10;72.03
65800;BME280;52544;48.116;11.660;2023-03-08T08:01:22;94117.16;;;4.32;72.07
65800;BME280;52544;48.116;11.660;2023-03-08T08:03:47;94099.06;;;4.29;70.45
65800;BME280;52544;48.116;11.660;2023-03-08T08:06:13;94097.19;;;4.31;70.99
65800;BME280;52544;48.116;11.660;2023-03-08T08:08:38;94087.28;;;4.34;70.34
65800;BME280;52544;48.116;11.660;2023-03-08T08:11:15;94083.28;;;4.40;70.27
65800;BME280;52544;48.116;11.660;2023-03-08T08:13:40;94077.41;;;4.47;70.68
65800;BME280;52544;48.116;11.660;2023-03-08T08:16:06;94074.31;;;4.63;70.42
65800;BME280;52544;48.116;11.660;2023-03-08T08:18:32;94066.09;;;4.78;68.83
65800;BME280;52544;48.116;11.660;2023-03-08T08:21:17;94057.97;;;4.90;68.34
65800;BME280;52544;48.116;11.660;2023-03-08T08:23:42;94059.69;;;5.11;67.64
65800;BME280;52544;48.116;11.660;2023-03-08T08:26:13;94045.66;;;5.31;65.97
65800;BME280;52544;48.116;11.660;2023-03-08T08:28:40;94032.28;;;5.44;64.97
65800;BME280;52544;48.116;11.660;2023-03-08T08:31:08;94021.88;;;5.52;63.43
65800;BME280;52544;48.116;11.660;2023-03-08T08:33:34;94011.13;;;5.55;63.51
65800;BME280;52544;48.116;11.660;2023-03-08T08:36:02;94015.13;;;5.59;63.33
65800;BME280;52544;48.116;11.660;2023-03-08T08:38:28;94014.56;;;5.56;61.61
65800;BME280;52544;48.116;11.660;2023-03-08T08:40:53;93994.00;;;5.51;61.51
65800;BME280;52544;48.116;11.660;2023-03-08T08:43:19;93988.50;;;5.44;62.09
65800;BME280;52544;48.116;11.660;2023-03-08T08:45:46;93975.78;;;5.40;61.49
65800;BME280;52544;48.116;11.660;2023-03-08T08:48:12;93953.69;;;5.42;61.37
65800;BME280;52544;48.116;11.660;2023-03-08T08:50:39;93953.41;;;5.45;60.81
65800;BME280;52544;48.116;11.660;2023-03-08T08:53:05;93945.13;;;5.50;60.80
65800;BME280;52544;48.116;11.660;2023-03-08T08:55:31;93944.53;;;5.56;60.67
65800;BME280;52544;48.116;11.660;2023-03-08T08:57:56;93937.78;;;5.63;60.05
65800;BME280;52544;48.116;11.660;2023-03-08T09:00:22;93938.16;;;5.68;59.56
65800;BME280;52544;48.116;11.660;2023-03-08T09:02:47;93931.66;;;5.72;59.75
65800;BME280;52544;48.116;11.660;2023-03-08T09:05:12;93939.94;;;5.77;59.26
65800;BME280;52544;48.116;11.660;2023-03-08T09:07:38;93941.63;;;5.79;60.25
65800;BME280;52544;48.116;11.660;2023-03-08T09:10:04;93930.00;;;5.81;60.16
65800;BME280;52544;48.116;11.660;2023-03-08T09:12:29;93924.63;;;5.83;60.39
65800;BME280;52544;48.116;11.660;2023-03-08T09:14:55;93922.38;;;5.88;60.86
65800;BME280;52544;48.116;11.660;2023-03-08T09:17:20;93922.94;;;5.91;61.61
65800;BME280;52544;48.116;11.660;2023-03-08T09:19:45;93909.94;;;5.90;61.91
65800;BME280;52544;48.116;11.660;2023-03-08T09:22:11;93899.31;;;5.91;62.52
65800;BME280;52544;48.116;11.660;2023-03-08T09:24:37;93912.03;;;5.96;62.95
65800;BME280;52544;48.116;11.660;2023-03-08T09:27:06;93907.75;;;5.95;62.80
65800;BME280;52544;48.116;11.660;2023-03-08T09:29:31;93890.31;;;5.94;62.83
65800;BME280;52544;48.116;11.660;2023-03-08T09:31:58;93881.19;;;5.98;62.29
65800;BME280;52544;48.116;11.660;2023-03-08T09:34:24;93878.56;;;5.98;61.19
65800;BME280;52544;48.116;11.660;2023-03-08T09:36:49;93878.28;;;6.01;61.12
65800;BME280;52544;48.116;11.660;2023-03-08T09:39:15;93873.47;;;5.96;61.74
65800;BME280;52544;48.116;11.660;2023-03-08T09:41:47;93869.00;;;6.07;62.00
65800;BME280;52544;48.116;11.660;2023-03-08T09:44:28;93874.66;;;6.12;61.28
65800;BME280;52544;48.116;11.660;2023-03-08T09:47:20;93863.72;;;6.16;60.81
65800;BME280;52544;48.116;11.660;2023-03-08T09:49:49;93853.50;;;6.13;60.37
65800;BME280;52544;48.116;11.660;2023-03-08T09:52:23;93864.53;;;6.17;61.12
65800;BME280;52544;48.116;11.660;2023-03-08T09:54:49;93862.28;;;6.22;60.79
65800;BME280;52544;48.116;11.660;2023-03-08T09:57:20;93860.03;;;6.27;61.45
65800;BME280;52544;48.116;11.660;2023-03-08T09:59:58;93864.84;;;6.32;61.39
65800;BME280;52544;48.116;11.660;2023-03-08T10:02:44;93848.06;;;6.42;61.84
65800;BME280;52544;48.116;11.660;2023-03-08T10:08:00;93843.41;;;6.54;60.10
65800;BME280;52544;48.116;11.660;2023-03-08T10:13:42;93833.97;;;6.79;58.44
65800;BME280;52544;48.116;11.660;2023-03-08T10:16:51;93838.53;;;6.95;58.17
65800;BME280;52544;48.116;11.660;2023-03-08T10:19:41;93836.91;;;6.94;58.72
65800;BME280;52544;48.116;11.660;2023-03-08T10:22:28;93833.91;;;6.89;58.05
65800;BME280;52544;48.116;11.660;2023-03-08T10:25:00;93836.31;;;6.82;58.03
65800;BME280;52544;48.116;11.660;2023-03-08T10:27:31;93824.28;;;6.80;58.83
65800;BME280;52544;48.116;11.660;2023-03-08T10:29:58;93824.59;;;6.76;58.99
65800;BME280;52544;48.116;11.660;2023-03-08T10:32:25;93831.50;;;6.78;59.15
65800;BME280;52544;48.116;11.660;2023-03-08T10:34:52;93840.03;;;6.80;60.14
65800;BME280;52544;48.116;11.660;2023-03-08T10:37:29;93868.53;;;6.84;60.07
65800;BME280;52544;48.116;11.660;2023-03-08T10:39:56;93860.50;;;6.86;59.81
65800;BME280;52544;48.116;11.660;2023-03-08T10:42:26;93875.38;;;6.95;60.45
65800;BME280;52544;48.116;11.660;2023-03-08T10:47:31;93892.34;;;7.00;58.64
65800;BME280;52544;48.116;11.660;2023-03-08T10:50:18;93891.47;;;7.10;58.55
65800;BME280;52544;48.116;11.660;2023-03-08T10:52:45;93881.75;;;7.10;57.99
65800;BME280;52544;48.116;11.660;2023-03-08T10:58:01;93881.00;;;7.18;60.23
65800;BME280;52544;48.116;11.660;2023-03-08T11:00:41;93880.38;;;7.24;61.75
65800;BME280;52544;48.116;11.660;2023-03-08T11:03:17;93868.28;;;7.13;64.12
65800;BME280;52544;48.116;11.660;2023-03-08T11:05:56;93868.06;;;7.07;64.82
65800;BME280;52544;48.116;11.660;2023-03-08T11:11:12;93869.97;;;7.14;71.62
65800;BME280;52544;48.116;11.660;2023-03-08T11:13:38;93883.31;;;7.03;74.45
65800;BME280;52544;48.116;11.660;2023-03-08T11:21:47;93876.94;;;6.88;72.25
65800;BME280;52544;48.116;11.660;2023-03-08T11:27:44;93862.88;;;6.79;71.25
65800;BME280;52544;48.116;11.660;2023-03-08T11:30:16;93869.94;;;6.79;72.44
65800;BME280;52544;48.116;11.660;2023-03-08T11:37:58;93861.22;;;6.78;71.63
65800;BME280;52544;48.116;11.660;2023-03-08T11:40:37;93851.16;;;6.73;74.33
65800;BME280;52544;48.116;11.660;2023-03-08T11:43:21;93836.91;;;6.76;72.70
65800;BME280;52544;48.116;11.660;2023-03-08T11:49:19;93804.66;;;6.92;71.67
65800;BME280;52544;48.116;11.660;2023-03-08T11:57:18;93788.81;;;6.84;73.31
65800;BME280;52544;48.116;11.660;2023-03-08T11:59:52;93774.56;;;6.86;74.91
65800;BME280;52544;48.116;11.660;2023-03-08T12:02:24;93763.22;;;6.86;73.94
65800;BME280;52544;48.116;11.660;2023-03-08T12:05:08;93764.72;;;6.88;75.12
65800;BME280;52544;48.116;11.660;2023-03-08T12:07:41;93766.56;;;6.96;76.55
65800;BME280;52544;48.116;11.660;2023-03-08T12:10:22;93757.72;;;6.97;77.26
65800;BME280;52544;48.116;11.660;2023-03-08T12:13:05;93756.72;;;6.98;78.11
65800;BME280;52544;48.116;11.660;2023-03-08T12:27:25;93750.88;;;7.38;77.00
65800;BME280;52544;48.116;11.660;2023-03-08T12:32:38;93748.16;;;7.48;75.83
65800;BME280;52544;48.116;11.660;2023-03-08T12:35:19;93748.22;;;7.56;76.02
65800;BME280;52544;48.116;11.660;2023-03-08T12:40:42;93734.78;;;7.75;73.54
65800;BME280;52544;48.116;11.660;2023-03-08T12:43:29;93738.47;;;7.91;71.83
65800;BME280;52544;48.116;11.660;2023-03-08T12:48:27;93741.81;;;8.17;69.58
65800;BME280;52544;48.116;11.660;2023-03-08T12:58:52;93743.25;;;8.46;68.88
65800;BME280;52544;48.116;11.660;2023-03-08T13:04:05;93740.25;;;8.49;69.40
65800;BME280;52544;48.116;11.660;2023-03-08T13:14:42;93751.31;;;8.69;67.97
65800;BME280;52544;48.116;11.660;2023-03-08T13:20:21;93748.19;;;8.82;68.08
65800;BME280;52544;48.116;11.660;2023-03-08T13:23:26;93744.56;;;9.07;69.44
65800;BME280;52544;48.116;11.660;2023-03-08T13:28:51;93765.25;;;9.51;71.93
65800;BME280;52544;48.116;11.660;2023-03-08T13:31:29;93742.91;;;9.78;72.51
65800;BME280;52544;48.116;11.660;2023-03-08T13:33:57;93728.31;;;9.98;72.72
65800;BME280;52544;48.116;11.660;2023-03-08T13:36:30;93732.56;;;10.39;71.79
65800;BME280;52544;48.116;11.660;2023-03-08T13:39:13;93722.97;;;11.07;69.03
65800;BME280;52544;48.116;11.660;2023-03-08T13:41:42;93729.06;;;11.45;66.94
65800;BME280;52544;48.116;11.660;2023-03-08T13:44:16;93709.06;;;11.72;65.82
65800;BME280;52544;48.116;11.660;2023-03-08T13:46:42;93725.00;;;11.87;65.44
65800;BME280;52544;48.116;11.660;2023-03-08T13:49:13;93720.97;;;11.91;64.23
65800;BME280;52544;48.116;11.660;2023-03-08T13:51:42;93725.34;;;11.84;63.77
65800;BME280;52544;48.116;11.660;2023-03-08T13:54:16;93737.50;;;11.78;64.06
65800;BME280;52544;48.116;11.660;2023-03-08T13:56:43;93729.28;;;11.73;64.85
65800;BME280;52544;48.116;11.660;2023-03-08T13:59:19;93723.16;;;11.72;64.43
65800;BME280;52544;48.116;11.660;2023-03-08T14:01:47;93724.22;;;11.63;64.69
65800;BME280;52544;48.116;11.660;2023-03-08T14:04:17;93741.78;;;11.64;64.24
65800;BME280;52544;48.116;11.660;2023-03-08T14:06:55;93711.06;;;11.55;64.78
65800;BME280;52544;48.116;11.660;2023-03-08T14:09:21;93721.03;;;11.53;65.01
65800;BME280;52544;48.116;11.660;2023-03-08T14:12:01;93716.09;;;11.50;65.54
65800;BME280;52544;48.116;11.660;2023-03-08T14:14:30;93705.88;;;11.47;65.59
65800;BME280;52544;48.116;11.660;2023-03-08T14:16:56;93715.47;;;11.48;65.50
65800;BME280;52544;48.116;11.660;2023-03-08T14:19:27;93720.75;;;11.48;65.10
65800;BME280;52544;48.116;11.660;2023-03-08T14:22:10;93705.13;;;11.38;66.40
65800;BME280;52544;48.116;11.660;2023-03-08T14:24:37;93683.84;;;11.46;65.84
65800;BME280;52544;48.116;11.660;2023-03-08T14:29:39;93706.16;;;11.52;66.16
65800;BME280;52544;48.116;11.660;2023-03-08T14:37:06;93695.44;;;11.45;66.80
65800;BME280;52544;48.116;11.660;2023-03-08T14:39:42;93707.13;;;11.51;66.46
65800;BME280;52544;48.116;11.660;2023-03-08T14:42:29;93694.91;;;11.50;66.92